Time;durP1;ratioP1;P1;durP2;ratioP2;P2;SDS_P1;SDS_P2;PMS_P1;PMS_P2;Temp;Humidity;BMP_temperature;BMP_pressure;BME280_temperature;BME280_humidity;BME280_pressure;Samples;Min_cycle;Max_cycle;Signal;HPM_P1;HPM_P2
2022/06/11 00:01:45;;;;;;;7.50;4.40;;;16.90;99.90;;;;;;4193353;28;20300;-82
2022/06/11 00:03:48;;;;;;;8.43;3.97;;;16.90;99.90;;;;;;4169784;28;20590;-81
2022/06/11 00:05:51;;;;;;;9.77;3.90;;;16.80;99.90;;;;;;4189191;28;20248;-82
2022/06/11 00:07:53;;;;;;;5.87;4.00;;;16.80;99.90;;;;;;4192771;28;20226;-81
2022/06/11 00:09:55;;;;;;;8.83;4.07;;;16.80;99.90;;;;;;4172281;28;20215;-81
2022/06/11 00:11:58;;;;;;;8.97;3.60;;;16.70;99.90;;;;;;4172933;28;20625;-81
2022/06/11 00:14:00;;;;;;;5.40;3.63;;;16.70;99.90;;;;;;4188831;28;20288;-82
2022/06/11 00:16:02;;;;;;;7.67;3.70;;;16.70;99.90;;;;;;4172695;28;21127;-82
2022/06/11 00:18:05;;;;;;;8.27;4.23;;;16.70;99.90;;;;;;4193428;28;20206;-82
2022/06/11 00:20:09;;;;;;;5.07;3.40;;;16.70;99.90;;;;;;4178160;28;20636;-82
2022/06/11 00:22:14;;;;;;;5.27;3.57;;;16.70;99.90;;;;;;4176457;28;20246;-81
2022/06/11 00:24:16;;;;;;;6.80;3.60;;;16.80;99.90;;;;;;4183245;28;20705;-81
2022/06/11 00:26:20;;;;;;;7.70;3.80;;;16.60;99.90;;;;;;4188221;28;20227;-82
2022/06/11 00:28:22;;;;;;;7.07;3.87;;;16.60;99.90;;;;;;4177473;28;20234;-81
2022/06/11 00:30:24;;;;;;;7.63;4.07;;;16.60;99.90;;;;;;4168698;28;20207;-81
2022/06/11 00:32:26;;;;;;;9.47;4.37;;;16.50;99.90;;;;;;4172179;28;20214;-81
2022/06/11 00:34:29;;;;;;;7.60;4.97;;;16.50;99.90;;;;;;4168991;28;20755;-81
2022/06/11 00:36:31;;;;;;;6.77;4.40;;;16.40;99.90;;;;;;4170299;28;20214;-81
2022/06/11 00:38:35;;;;;;;9.07;4.67;;;16.40;99.90;;;;;;4178522;28;20743;-82
2022/06/11 00:40:40;;;;;;;8.97;5.37;;;16.40;99.90;;;;;;4171178;28;20260;-81
2022/06/11 00:42:43;;;;;;;8.07;4.73;;;16.30;99.90;;;;;;4178060;28;20238;-81
2022/06/11 00:44:46;;;;;;;9.50;4.90;;;16.30;99.90;;;;;;4175249;28;20325;-80
2022/06/11 00:46:59;;;;;;;7.07;5.10;;;16.30;99.90;;;;;;4178058;28;20675;-80
2022/06/11 00:49:02;;;;;;;8.57;5.23;;;16.20;99.90;;;;;;4172431;28;20739;-81
2022/06/11 00:51:11;;;;;;;10.73;5.50;;;16.20;99.90;;;;;;4179085;28;20305;-81
2022/06/11 01:38:06;;;;;;;8.60;5.30;;;15.60;99.90;;;;;;4174389;28;20216;-81
2022/06/11 01:40:18;;;;;;;9.77;5.60;;;15.60;99.90;;;;;;4175799;28;20301;-80
2022/06/11 01:42:24;;;;;;;9.97;5.80;;;15.50;99.90;;;;;;4187921;28;20214;-81
2022/06/11 01:44:30;;;;;;;13.37;6.77;;;15.50;99.90;;;;;;4176792;28;20716;-81
2022/06/11 01:46:35;;;;;;;10.03;6.53;;;15.50;99.90;;;;;;4175730;28;20207;-81
2022/06/11 01:48:37;;;;;;;11.57;6.13;;;15.50;99.90;;;;;;4178388;28;20220;-81
2022/06/11 01:50:50;;;;;;;8.60;5.30;;;15.50;99.90;;;;;;4174156;28;20224;-82
2022/06/11 01:55:36;;;;;;;10.27;5.73;;;15.50;99.90;;;;;;4186945;28;20217;-82
2022/06/11 01:58:03;;;;;;;7.60;5.30;;;15.40;99.90;;;;;;4193367;28;20259;-82
2022/06/11 02:00:13;;;;;;;9.27;5.30;;;15.40;99.90;;;;;;4186397;28;20295;-82
2022/06/11 02:02:32;;;;;;;7.53;5.50;;;15.40;99.90;;;;;;4191451;28;20201;-83
2022/06/11 02:04:45;;;;;;;9.30;5.43;;;15.40;99.90;;;;;;4192237;28;20294;-81
2022/06/11 02:06:56;;;;;;;9.20;5.30;;;15.30;99.90;;;;;;4190620;28;20605;-82
2022/06/11 02:09:14;;;;;;;7.97;5.03;;;15.30;99.90;;;;;;4195298;28;20226;-82
2022/06/11 02:11:26;;;;;;;8.00;5.33;;;15.30;99.90;;;;;;4197348;28;20211;-81
2022/06/11 02:13:33;;;;;;;6.43;4.93;;;15.30;99.90;;;;;;4187347;28;20240;-82
2022/06/11 02:15:40;;;;;;;7.60;5.17;;;15.30;99.90;;;;;;4187515;28;20209;-81
2022/06/11 02:17:47;;;;;;;9.33;5.07;;;15.20;99.90;;;;;;4183027;28;20209;-82
2022/06/11 02:19:54;;;;;;;7.67;5.13;;;15.20;99.90;;;;;;4194263;28;20218;-81
2022/06/11 02:22:01;;;;;;;9.27;5.37;;;15.20;99.90;;;;;;4191895;28;20213;-81
2022/06/11 02:24:09;;;;;;;8.23;5.20;;;15.20;99.90;;;;;;4187442;28;20228;-81
2022/06/11 02:26:19;;;;;;;10.50;5.10;;;15.10;99.90;;;;;;4191484;28;20235;-81
2022/06/11 02:28:24;;;;;;;11.43;5.67;;;15.10;99.90;;;;;;4190952;28;20229;-82
2022/06/11 02:30:29;;;;;;;7.43;4.83;;;15.10;99.90;;;;;;4192597;28;20662;-81
2022/06/11 02:32:34;;;;;;;8.00;5.13;;;15.10;99.90;;;;;;4192262;28;20240;-82
2022/06/11 02:34:39;;;;;;;6.17;4.83;;;15.00;99.90;;;;;;4193242;28;20261;-81
2022/06/11 02:36:49;;;;;;;11.60;5.80;;;15.00;99.90;;;;;;4192829;28;20342;-82
2022/06/11 02:38:52;;;;;;;5.80;4.70;;;15.00;99.90;;;;;;4195795;28;20620;-82
2022/06/11 02:40:58;;;;;;;12.17;5.20;;;15.00;99.90;;;;;;4195183;28;20219;-81
2022/06/11 02:43:01;;;;;;;7.37;5.10;;;15.00;99.90;;;;;;4190493;28;20213;-81
2022/06/11 02:45:04;;;;;;;6.83;4.93;;;15.00;99.90;;;;;;4184752;28;20315;-81
2022/06/11 02:47:06;;;;;;;5.83;4.80;;;15.00;99.90;;;;;;4187442;28;20654;-81
2022/06/11 02:49:11;;;;;;;11.27;5.10;;;14.90;99.90;;;;;;4193813;28;20700;-82
2022/06/11 02:51:13;;;;;;;6.93;4.80;;;14.90;99.90;;;;;;4189262;28;20213;-82
2022/06/11 02:53:15;;;;;;;6.97;4.50;;;14.90;99.90;;;;;;4197389;28;20290;-81
2022/06/11 02:55:18;;;;;;;7.80;4.10;;;14.90;99.90;;;;;;4192975;28;20224;-81
2022/06/11 02:57:23;;;;;;;8.27;4.33;;;14.90;99.90;;;;;;4192695;28;20210;-81
2022/06/11 02:59:28;;;;;;;9.97;4.80;;;14.90;99.90;;;;;;4194743;28;20210;-81
2022/06/11 03:01:30;;;;;;;7.03;4.67;;;14.90;99.90;;;;;;4193974;28;20229;-81
2022/06/11 03:03:32;;;;;;;7.00;4.50;;;14.90;99.90;;;;;;4206521;28;20210;-81
2022/06/11 03:05:36;;;;;;;9.30;5.00;;;14.90;99.90;;;;;;4188265;28;20229;-81
2022/06/11 03:07:38;;;;;;;9.13;4.33;;;14.90;99.90;;;;;;4185506;28;20294;-81
2022/06/11 03:09:43;;;;;;;8.90;4.80;;;14.80;99.90;;;;;;4185810;28;20219;-82
2022/06/11 03:11:45;;;;;;;7.57;4.17;;;14.80;99.90;;;;;;4185323;28;20227;-81
2022/06/11 03:13:48;;;;;;;11.20;4.50;;;14.80;99.90;;;;;;4191009;28;20286;-82
2022/06/11 03:15:52;;;;;;;8.20;4.03;;;14.80;99.90;;;;;;4187203;28;20305;-83
2022/06/11 03:17:55;;;;;;;6.87;4.43;;;14.80;99.90;;;;;;4191819;28;20199;-83
2022/06/11 03:19:57;;;;;;;8.77;4.17;;;14.80;99.90;;;;;;4191668;28;20221;-83
2022/06/11 03:21:59;;;;;;;11.33;5.03;;;15.10;99.90;;;;;;4188897;28;20210;-82
2022/06/11 03:24:02;;;;;;;8.27;4.03;;;14.80;99.90;;;;;;4189572;28;20485;-82
2022/06/11 03:26:06;;;;;;;9.83;4.03;;;14.90;99.90;;;;;;4193004;28;20212;-83
2022/06/11 03:28:10;;;;;;;9.80;4.37;;;14.90;99.90;;;;;;4189320;28;20248;-82
2022/06/11 03:30:14;;;;;;;5.43;3.50;;;14.90;99.90;;;;;;4192587;28;20270;-83
2022/06/11 03:32:18;;;;;;;12.67;4.07;;;15.00;99.90;;;;;;4194825;28;20208;-81
2022/06/11 03:34:21;;;;;;;9.57;3.60;;;14.90;99.90;;;;;;4188293;28;20229;-82
2022/06/11 03:36:23;;;;;;;12.20;4.40;;;15.10;99.90;;;;;;4189387;28;20207;-82
2022/06/11 03:38:25;;;;;;;11.07;4.17;;;15.00;99.90;;;;;;4184592;28;20199;-81
2022/06/11 03:40:28;;;;;;;6.83;4.00;;;15.10;99.90;;;;;;4193267;28;20226;-81
2022/06/11 03:42:30;;;;;;;9.33;4.17;;;15.10;99.90;;;;;;4192721;28;20204;-82
2022/06/11 03:44:32;;;;;;;8.03;3.80;;;15.10;99.90;;;;;;4195839;28;20226;-81
2022/06/11 03:46:34;;;;;;;9.33;4.00;;;15.20;99.90;;;;;;4191419;28;20281;-80
2022/06/11 03:48:38;;;;;;;8.43;3.57;;;15.20;99.90;;;;;;4182803;28;20225;-82
2022/06/11 03:50:41;;;;;;;7.00;4.47;;;15.20;99.90;;;;;;4188526;28;20271;-81
2022/06/11 03:52:43;;;;;;;8.33;3.60;;;15.30;99.90;;;;;;4196667;28;20578;-81
2022/06/11 03:54:47;;;;;;;8.43;3.87;;;15.30;99.90;;;;;;4189965;28;20243;-81
2022/06/11 03:56:51;;;;;;;7.60;4.00;;;15.30;99.90;;;;;;4192500;28;20264;-80
2022/06/11 03:58:54;;;;;;;9.00;4.03;;;15.30;99.90;;;;;;4191153;28;20220;-82
2022/06/11 04:03:17;;;;;;;9.53;4.10;;;15.40;99.90;;;;;;4186203;28;20205;-82
2022/06/11 04:05:20;;;;;;;7.60;3.97;;;15.40;99.90;;;;;;4190448;28;20212;-80
2022/06/11 04:07:22;;;;;;;8.80;4.07;;;15.50;99.90;;;;;;4188501;28;20206;-81
2022/06/11 04:09:27;;;;;;;5.80;3.57;;;15.50;99.90;;;;;;4189158;28;20221;-81
2022/06/11 04:11:29;;;;;;;5.63;3.43;;;15.50;99.90;;;;;;4185520;28;20261;-80
2022/06/11 04:13:33;;;;;;;10.17;4.47;;;15.70;99.90;;;;;;4187341;28;20311;-81
2022/06/11 04:15:35;;;;;;;11.47;4.10;;;15.60;99.90;;;;;;4190933;28;20231;-80
2022/06/11 04:17:37;;;;;;;7.03;3.70;;;15.60;99.90;;;;;;4192903;28;20201;-81
2022/06/11 04:19:41;;;;;;;9.50;4.20;;;15.60;99.90;;;;;;4189082;28;20200;-80
2022/06/11 04:21:46;;;;;;;7.40;3.63;;;15.70;99.90;;;;;;4192428;28;20216;-80
2022/06/11 04:23:51;;;;;;;7.53;4.07;;;15.70;99.90;;;;;;4188990;28;20282;-81
2022/06/11 04:25:53;;;;;;;9.90;4.17;;;15.80;99.90;;;;;;4189050;28;20247;-81
2022/06/11 04:27:55;;;;;;;9.93;3.93;;;15.80;99.90;;;;;;4186478;28;20205;-80
2022/06/11 04:29:58;;;;;;;10.97;3.57;;;15.90;99.90;;;;;;4184271;28;20229;-80
2022/06/11 04:32:02;;;;;;;8.27;3.63;;;15.90;99.90;;;;;;4192267;28;20220;-81
2022/06/11 04:34:05;;;;;;;9.97;3.93;;;16.00;99.90;;;;;;4185632;28;20315;-83
2022/06/11 04:36:08;;;;;;;9.03;3.53;;;16.00;99.90;;;;;;4208997;28;20211;-81
2022/06/11 04:38:12;;;;;;;8.07;3.73;;;16.00;99.90;;;;;;4201633;28;20208;-81
2022/06/11 04:40:18;;;;;;;7.73;3.50;;;16.10;99.90;;;;;;4194896;28;20219;-82
2022/06/11 04:42:22;;;;;;;11.43;3.87;;;16.10;99.90;;;;;;4197925;28;20205;-82
2022/06/11 04:44:24;;;;;;;7.77;3.90;;;16.10;99.90;;;;;;4202947;28;20223;-82
2022/06/11 04:46:27;;;;;;;9.20;3.80;;;16.20;99.90;;;;;;4201870;28;20385;-81
2022/06/11 04:48:29;;;;;;;8.93;3.80;;;16.20;99.90;;;;;;4197099;28;20235;-82
2022/06/11 04:50:33;;;;;;;5.73;3.77;;;16.30;99.90;;;;;;4198419;28;20210;-81
2022/06/11 04:52:35;;;;;;;10.07;3.77;;;16.30;99.90;;;;;;4195090;28;20282;-82
2022/06/11 04:54:41;;;;;;;8.13;3.50;;;16.30;99.90;;;;;;4191580;28;20240;-82
2022/06/11 04:56:43;;;;;;;5.00;3.13;;;16.30;99.90;;;;;;4195323;28;20233;-83
2022/06/11 04:58:46;;;;;;;8.80;3.63;;;16.30;99.90;;;;;;4191616;28;20214;-83
2022/06/11 05:00:48;;;;;;;8.50;3.53;;;16.40;99.90;;;;;;4193024;28;20249;-83
2022/06/11 05:02:50;;;;;;;7.87;3.63;;;16.30;99.90;;;;;;4212137;28;20228;-81
2022/06/11 05:04:53;;;;;;;7.23;3.70;;;16.40;99.90;;;;;;4195694;28;20278;-82
2022/06/11 05:06:55;;;;;;;8.00;3.80;;;16.30;99.90;;;;;;4194326;28;20202;-83
2022/06/11 05:08:58;;;;;;;7.97;3.53;;;16.30;99.90;;;;;;4196277;28;20230;-83
2022/06/11 05:11:01;;;;;;;6.60;3.73;;;16.30;99.90;;;;;;4196192;28;20597;-83
2022/06/11 05:13:04;;;;;;;7.30;3.63;;;16.30;99.90;;;;;;4194733;28;20198;-82
2022/06/11 05:15:07;;;;;;;8.57;4.07;;;16.40;99.90;;;;;;4211155;28;20613;-84
2022/06/11 05:17:10;;;;;;;6.93;3.63;;;16.30;99.90;;;;;;4196578;28;20206;-82
2022/06/11 05:19:14;;;;;;;6.63;3.13;;;16.30;99.90;;;;;;4197364;28;20734;-83
2022/06/11 05:21:16;;;;;;;8.23;4.00;;;16.30;99.90;;;;;;4196434;28;20290;-82
2022/06/11 05:23:19;;;;;;;11.37;3.63;;;16.30;99.90;;;;;;4192330;28;20208;-82
2022/06/11 05:25:22;;;;;;;7.33;3.60;;;16.30;99.90;;;;;;4191516;28;20687;-82
2022/06/11 05:27:28;;;;;;;9.00;3.63;;;16.30;99.90;;;;;;4192769;28;20202;-81
2022/06/11 05:29:34;;;;;;;8.47;4.30;;;16.50;99.90;;;;;;4192036;28;20233;-83
2022/06/11 05:31:39;;;;;;;8.20;4.27;;;16.30;99.90;;;;;;4205271;28;20214;-83
2022/06/11 05:33:42;;;;;;;8.50;4.03;;;16.30;99.90;;;;;;4190095;28;20243;-82
2022/06/11 05:35:45;;;;;;;11.63;4.30;;;16.30;99.90;;;;;;4206445;28;20692;-82
2022/06/11 05:37:50;;;;;;;8.67;4.37;;;16.40;99.90;;;;;;4191444;28;20213;-82
2022/06/11 05:39:53;;;;;;;12.07;3.70;;;16.30;99.90;;;;;;4195100;28;20199;-83
2022/06/11 05:41:55;;;;;;;11.80;3.97;;;16.40;99.90;;;;;;4196207;28;20214;-82
2022/06/11 05:43:59;;;;;;;6.20;4.30;;;16.40;99.90;;;;;;4194278;28;20325;-81
2022/06/11 05:46:06;;;;;;;10.77;4.10;;;16.40;99.90;;;;;;4208725;28;20223;-83
2022/06/11 05:48:10;;;;;;;8.30;3.40;;;16.40;99.90;;;;;;4198442;28;20212;-84
2022/06/11 05:50:18;;;;;;;10.50;4.30;;;16.50;99.90;;;;;;4189833;28;20257;-82
2022/06/11 05:52:30;;;;;;;12.70;3.57;;;16.40;99.90;;;;;;4193867;28;20212;-81
2022/06/11 05:54:35;;;;;;;6.40;3.40;;;16.50;99.90;;;;;;4193293;28;20229;-81
2022/06/11 05:56:38;;;;;;;11.77;3.43;;;16.50;99.90;;;;;;4196353;28;20245;-82
2022/06/11 05:58:43;;;;;;;7.23;3.73;;;16.60;99.90;;;;;;4197593;28;20281;-82
2022/06/11 06:00:47;;;;;;;7.10;3.60;;;16.60;99.90;;;;;;4194922;28;20212;-82
2022/06/11 06:02:49;;;;;;;10.17;3.63;;;16.60;99.90;;;;;;4194923;28;20226;-84
2022/06/11 06:04:51;;;;;;;9.23;3.50;;;16.70;99.90;;;;;;4194474;28;20222;-83
2022/06/11 06:06:53;;;;;;;7.37;3.40;;;16.70;99.90;;;;;;4191818;28;20213;-84
2022/06/11 06:08:55;;;;;;;7.67;3.33;;;16.70;99.90;;;;;;4191070;28;20260;-83
2022/06/11 06:10:57;;;;;;;9.27;3.70;;;16.80;99.90;;;;;;4190282;28;20202;-83
2022/06/11 06:12:59;;;;;;;7.57;3.70;;;16.80;99.90;;;;;;4186875;28;20210;-82
2022/06/11 06:15:05;;;;;;;5.57;3.20;;;16.80;99.90;;;;;;4203632;28;20221;-82
2022/06/11 06:17:09;;;;;;;7.60;3.30;;;16.90;99.90;;;;;;4191411;28;20203;-82
2022/06/11 06:19:10;;;;;;;6.63;3.20;;;16.90;99.90;;;;;;4193429;28;20194;-82
2022/06/11 06:21:14;;;;;;;8.07;3.10;;;17.00;99.90;;;;;;4206788;28;20213;-82
2022/06/11 06:23:16;;;;;;;4.77;2.77;;;16.90;99.90;;;;;;4191555;28;20194;-83
2022/06/11 06:25:21;;;;;;;8.33;3.23;;;17.00;99.90;;;;;;4191346;28;20205;-83
2022/06/11 06:27:23;;;;;;;6.37;2.80;;;17.10;99.90;;;;;;4194728;28;20206;-82
2022/06/11 06:29:25;;;;;;;4.67;2.93;;;17.10;99.90;;;;;;4192325;28;20218;-82
2022/06/11 06:31:27;;;;;;;5.80;2.70;;;17.20;99.90;;;;;;4195209;28;20230;-82
2022/06/11 06:33:34;;;;;;;4.67;2.60;;;17.30;99.90;;;;;;4194051;28;20210;-82
2022/06/11 06:35:36;;;;;;;4.60;2.97;;;17.40;99.90;;;;;;4188204;28;20199;-83
2022/06/11 06:37:38;;;;;;;6.20;2.60;;;17.50;99.90;;;;;;4199209;28;20227;-83
2022/06/11 06:39:40;;;;;;;6.07;2.60;;;17.50;99.90;;;;;;4197329;28;20297;-82
2022/06/11 06:41:42;;;;;;;7.03;2.80;;;17.50;99.90;;;;;;4188273;28;20210;-83
2022/06/11 06:43:44;;;;;;;6.97;2.90;;;17.60;99.90;;;;;;4189498;28;20268;-83
2022/06/11 06:45:46;;;;;;;5.07;2.60;;;17.60;99.90;;;;;;4207178;28;20718;-83
2022/06/11 06:47:48;;;;;;;4.70;2.57;;;17.80;99.90;;;;;;4197975;28;20269;-83
2022/06/11 06:49:52;;;;;;;7.37;2.20;;;17.90;99.90;;;;;;4192139;28;20296;-83
2022/06/11 06:51:54;;;;;;;9.03;2.53;;;18.00;99.90;;;;;;4194063;28;20612;-82
2022/06/11 06:53:57;;;;;;;5.97;2.60;;;18.00;99.90;;;;;;4195092;28;20233;-82
2022/06/11 06:55:59;;;;;;;4.30;2.30;;;18.10;99.90;;;;;;4191017;28;20211;-84
2022/06/11 06:58:01;;;;;;;5.47;2.30;;;18.10;99.90;;;;;;4183917;28;20581;-84
2022/06/11 07:00:08;;;;;;;3.23;2.77;;;18.20;99.90;;;;;;4185338;28;20208;-84
2022/06/11 07:02:10;;;;;;;4.70;2.30;;;18.30;99.90;;;;;;4182967;28;20273;-84
2022/06/11 07:04:12;;;;;;;4.93;2.00;;;18.40;99.90;;;;;;4192038;28;20235;-83
2022/06/11 07:06:16;;;;;;;4.70;2.07;;;18.40;99.90;;;;;;4190276;28;20215;-84
2022/06/11 07:08:18;;;;;;;7.40;2.33;;;18.50;99.90;;;;;;4197070;28;20653;-85
2022/06/11 07:10:23;;;;;;;6.50;2.60;;;18.60;99.90;;;;;;4181950;28;20218;-84
2022/06/11 07:12:25;;;;;;;8.23;2.43;;;18.60;99.90;;;;;;4200018;28;20206;-84
2022/06/11 07:14:27;;;;;;;6.03;2.57;;;18.70;99.90;;;;;;4188619;28;20248;-85
2022/06/11 07:16:36;;;;;;;5.23;2.20;;;18.80;99.90;;;;;;4185500;28;20235;-84
2022/06/11 07:18:41;;;;;;;7.53;2.20;;;18.80;99.90;;;;;;4192114;28;20630;-84
2022/06/11 07:20:46;;;;;;;6.47;2.00;;;18.90;99.90;;;;;;4191522;28;20660;-83
2022/06/11 07:22:55;;;;;;;7.37;1.97;;;19.00;99.90;;;;;;4189329;28;20218;-84
2022/06/11 07:24:57;;;;;;;3.73;2.30;;;19.10;99.90;;;;;;4191341;28;20235;-85
2022/06/11 07:27:04;;;;;;;3.37;1.93;;;19.40;99.90;;;;;;4221772;28;20258;-85
2022/06/11 07:29:09;;;;;;;6.03;2.40;;;19.30;99.90;;;;;;4196361;28;20230;-86
2022/06/11 07:31:11;;;;;;;6.13;2.70;;;19.40;99.90;;;;;;4193693;28;20229;-87
2022/06/11 07:33:18;;;;;;;6.77;2.00;;;19.50;99.90;;;;;;4192395;28;20233;-86
2022/06/11 07:35:20;;;;;;;4.53;2.00;;;19.60;99.90;;;;;;4195649;28;20202;-87
2022/06/11 07:37:22;;;;;;;6.50;2.27;;;19.60;99.90;;;;;;4193594;28;20212;-87
2022/06/11 07:39:28;;;;;;;3.20;1.87;;;19.70;99.90;;;;;;4207220;28;20210;-85
2022/06/11 07:41:31;;;;;;;7.30;1.90;;;19.80;99.90;;;;;;4200655;28;20272;-86
2022/06/11 07:43:33;;;;;;;7.27;2.17;;;19.90;99.90;;;;;;4204182;28;20678;-83
2022/06/11 07:45:36;;;;;;;4.73;2.20;;;19.90;99.90;;;;;;4196024;28;20288;-84
2022/06/11 07:47:56;;;;;;;5.67;1.93;;;20.10;99.90;;;;;;4211814;28;20223;-83
2022/06/11 07:49:58;;;;;;;4.97;2.00;;;20.10;99.90;;;;;;4195005;28;20226;-85
2022/06/11 07:52:00;;;;;;;3.77;1.90;;;20.20;99.90;;;;;;4181064;28;20214;-86
2022/06/11 07:54:03;;;;;;;8.57;1.80;;;20.30;98.60;;;;;;4193131;28;20257;-86
2022/06/11 07:56:10;;;;;;;6.43;1.90;;;20.50;97.80;;;;;;4198147;28;20205;-85
2022/06/11 07:58:13;;;;;;;3.30;1.70;;;20.50;98.00;;;;;;4201034;28;20209;-84
2022/06/11 08:00:19;;;;;;;3.83;1.50;;;20.60;95.10;;;;;;4196818;28;20209;-85
2022/06/11 08:02:21;;;;;;;3.63;1.63;;;20.70;91.70;;;;;;4193399;28;20204;-84
2022/06/11 08:04:29;;;;;;;11.70;2.07;;;20.80;91.20;;;;;;4199373;28;20219;-86
2022/06/11 08:06:32;;;;;;;3.70;1.50;;;20.80;91.20;;;;;;4194803;28;20214;-85
2022/06/11 08:08:34;;;;;;;6.17;1.90;;;21.00;90.10;;;;;;4197829;28;20208;-85
2022/06/11 08:10:38;;;;;;;3.47;1.60;;;21.00;88.10;;;;;;4211096;28;20320;-84
2022/06/11 08:12:42;;;;;;;3.13;1.50;;;21.10;82.60;;;;;;4190876;28;20205;-84
2022/06/11 08:14:44;;;;;;;6.50;1.63;;;21.20;78.40;;;;;;4195198;28;20226;-85
2022/06/11 08:16:46;;;;;;;4.13;1.40;;;21.20;75.50;;;;;;4195070;28;20206;-84
2022/06/11 08:18:54;;;;;;;3.93;1.87;;;21.30;77.00;;;;;;4195891;28;20220;-86
2022/06/11 08:20:56;;;;;;;4.40;1.87;;;21.40;76.60;;;;;;4189250;28;20579;-86
2022/06/11 08:22:59;;;;;;;5.43;1.83;;;21.40;75.20;;;;;;4198817;28;20242;-86
2022/06/11 08:25:01;;;;;;;2.60;1.27;;;21.50;74.60;;;;;;4195191;28;20227;-84
2022/06/11 08:27:03;;;;;;;7.53;1.30;;;21.60;72.40;;;;;;4186283;28;20207;-84
2022/06/11 08:29:07;;;;;;;3.07;1.77;;;21.70;72.30;;;;;;4199694;28;20292;-84
2022/06/11 08:31:09;;;;;;;3.50;1.43;;;21.80;74.30;;;;;;4191450;28;20224;-84
2022/06/11 08:33:11;;;;;;;4.13;1.40;;;21.90;75.10;;;;;;4188729;28;20209;-84
2022/06/11 08:35:14;;;;;;;2.63;1.30;;;21.90;71.90;;;;;;4194826;28;20254;-85
2022/06/11 08:37:17;;;;;;;7.00;1.67;;;22.00;71.50;;;;;;4189137;28;20213;-86
2022/06/11 08:39:19;;;;;;;3.17;1.50;;;22.00;71.60;;;;;;4194437;28;20206;-84
2022/06/11 08:41:25;;;;;;;6.10;1.30;;;22.20;67.30;;;;;;4195545;28;20203;-84
2022/06/11 08:43:31;;;;;;;2.33;1.20;;;22.20;62.70;;;;;;4206470;28;20198;-84
2022/06/11 08:45:42;;;;;;;3.30;1.40;;;22.20;62.30;;;;;;4192922;28;20209;-86
2022/06/11 08:47:51;;;;;;;5.47;1.30;;;22.30;62.90;;;;;;4189830;28;20241;-85
2022/06/11 08:49:59;;;;;;;4.00;1.33;;;22.30;58.60;;;;;;4195719;28;20586;-82
2022/06/11 08:52:09;;;;;;;3.50;1.23;;;22.40;58.20;;;;;;4205167;28;20209;-84
2022/06/11 08:54:14;;;;;;;6.83;1.53;;;22.50;58.00;;;;;;4193767;28;20240;-83
2022/06/11 08:56:23;;;;;;;3.37;1.50;;;22.60;58.20;;;;;;4190873;28;20200;-84
2022/06/11 08:58:39;;;;;;;8.43;1.87;;;22.60;57.00;;;;;;4190354;28;20213;-86
2022/06/11 09:00:49;;;;;;;3.47;1.30;;;22.70;56.70;;;;;;4179663;28;20267;-86
2022/06/11 09:03:15;;;;;;;2.93;1.40;;;22.80;54.00;;;;;;4193512;28;20204;-85
2022/06/11 09:05:42;;;;;;;3.47;1.10;;;22.90;52.40;;;;;;4194018;28;20251;-84
2022/06/11 09:07:53;;;;;;;4.53;1.20;;;22.90;52.20;;;;;;4193620;28;20206;-84
2022/06/11 09:10:10;;;;;;;4.90;1.40;;;23.00;52.20;;;;;;4198033;28;20202;-84
2022/06/11 09:12:46;;;;;;;6.30;1.60;;;23.00;51.30;;;;;;4194116;28;20224;-85
2022/06/11 09:15:06;;;;;;;4.17;1.33;;;23.10;50.90;;;;;;4181355;28;20233;-84
2022/06/11 09:17:37;;;;;;;6.07;1.80;;;23.20;50.90;;;;;;4201326;28;20215;-84
2022/06/11 09:19:57;;;;;;;5.63;1.30;;;23.20;50.90;;;;;;4189722;28;20222;-85
2022/06/11 09:22:11;;;;;;;6.90;1.30;;;23.20;50.10;;;;;;4206605;28;20241;-84
2022/06/11 09:24:36;;;;;;;4.80;1.23;;;23.40;49.80;;;;;;4196117;28;20232;-84
2022/06/11 09:26:45;;;;;;;4.00;1.30;;;23.50;50.40;;;;;;4192930;28;20308;-85
2022/06/11 09:29:05;;;;;;;2.87;1.00;;;23.60;50.70;;;;;;4189658;28;20205;-85
2022/06/11 09:31:13;;;;;;;3.77;1.30;;;23.70;49.20;;;;;;4193442;28;20340;-85
2022/06/11 09:33:23;;;;;;;5.67;1.30;;;23.80;48.90;;;;;;4190635;28;20203;-85
2022/06/11 09:35:35;;;;;;;3.73;1.40;;;24.00;49.70;;;;;;4193809;28;20726;-85
2022/06/11 09:37:45;;;;;;;3.17;1.53;;;24.10;49.30;;;;;;4191825;28;20232;-83
2022/06/11 09:39:57;;;;;;;3.17;1.20;;;24.20;49.60;;;;;;4207310;28;20274;-84
2022/06/11 09:42:12;;;;;;;5.60;1.20;;;24.30;48.90;;;;;;4193378;28;20210;-85
2022/06/11 09:44:31;;;;;;;3.70;1.23;;;24.40;48.00;;;;;;4188313;28;20237;-85
2022/06/11 09:46:37;;;;;;;3.23;1.10;;;24.50;47.10;;;;;;4197934;28;20214;-85
2022/06/11 09:48:51;;;;;;;4.80;1.00;;;24.50;45.10;;;;;;4188565;28;20211;-84
2022/06/11 09:50:58;;;;;;;2.87;1.10;;;24.50;44.70;;;;;;4200224;28;20219;-84
2022/06/11 09:53:16;;;;;;;4.23;1.23;;;24.50;44.20;;;;;;4215736;28;20571;-82
2022/06/11 09:55:28;;;;;;;6.03;1.50;;;24.60;44.50;;;;;;4195773;28;20206;-86
2022/06/11 09:57:38;;;;;;;5.30;1.20;;;24.60;45.40;;;;;;4190998;28;20210;-84
2022/06/11 09:59:45;;;;;;;2.30;1.10;;;24.60;45.80;;;;;;4193027;28;20209;-84
2022/06/11 10:01:53;;;;;;;4.60;1.70;;;24.60;46.10;;;;;;4190227;28;20676;-84
2022/06/11 10:04:02;;;;;;;3.97;1.10;;;24.60;45.90;;;;;;4193936;28;20236;-84
2022/06/11 10:06:08;;;;;;;4.57;1.40;;;24.70;45.50;;;;;;4190456;28;20216;-84
2022/06/11 10:08:19;;;;;;;4.83;1.40;;;24.70;45.70;;;;;;4183503;28;20277;-86
2022/06/11 10:10:26;;;;;;;3.03;1.50;;;24.70;46.20;;;;;;4187653;28;20210;-84
2022/06/11 10:12:31;;;;;;;4.53;1.47;;;24.60;46.70;;;;;;4187208;28;20208;-84
2022/06/11 10:14:39;;;;;;;7.23;1.43;;;24.70;46.90;;;;;;4189282;28;20262;-84
2022/06/11 10:16:43;;;;;;;4.70;1.40;;;24.60;46.70;;;;;;4180029;28;20213;-84
2022/06/11 10:18:50;;;;;;;4.90;1.20;;;24.60;47.20;;;;;;4192696;28;20269;-82
2022/06/11 10:20:57;;;;;;;3.27;1.30;;;24.60;47.10;;;;;;4191359;28;20206;-83
2022/06/11 10:23:06;;;;;;;5.17;1.37;;;24.70;46.50;;;;;;4191748;28;20236;-87
2022/06/11 10:25:20;;;;;;;1.67;1.13;;;24.60;46.20;;;;;;4192580;28;20249;-84
2022/06/11 10:27:25;;;;;;;3.97;1.37;;;24.70;46.50;;;;;;4188274;28;20218;-85
2022/06/11 10:29:33;;;;;;;4.80;1.00;;;24.80;47.10;;;;;;4184900;28;20202;-83
2022/06/11 10:31:40;;;;;;;7.67;1.73;;;24.80;47.10;;;;;;4187369;28;20237;-84
2022/06/11 10:33:48;;;;;;;4.90;1.40;;;24.90;47.10;;;;;;4186511;28;20232;-84
2022/06/11 10:36:01;;;;;;;3.60;1.53;;;25.00;45.10;;;;;;4184606;28;20214;-86
2022/06/11 10:38:13;;;;;;;3.33;1.33;;;25.10;43.70;;;;;;4183539;28;20234;-81
2022/06/11 10:40:23;;;;;;;4.87;1.40;;;25.20;43.70;;;;;;4187332;28;20240;-82
2022/06/11 10:42:34;;;;;;;5.63;2.23;;;25.30;43.30;;;;;;4185985;28;20586;-81
2022/06/11 10:44:39;;;;;;;6.53;1.83;;;25.40;43.70;;;;;;4188380;28;20260;-83
2022/06/11 10:46:41;;;;;;;5.83;1.83;;;25.50;44.40;;;;;;4183278;28;20206;-84
2022/06/11 10:48:44;;;;;;;9.60;1.67;;;25.50;44.70;;;;;;4184868;28;20214;-81
2022/06/11 10:50:47;;;;;;;3.63;1.47;;;25.60;44.60;;;;;;4192771;28;20656;-81
2022/06/11 10:52:56;;;;;;;4.60;1.40;;;25.60;44.40;;;;;;4189796;28;20671;-81
2022/06/11 10:54:58;;;;;;;5.03;1.33;;;25.70;43.60;;;;;;4195185;28;20233;-85
2022/06/11 10:57:09;;;;;;;3.93;1.43;;;25.70;43.30;;;;;;4207263;28;20210;-85
2022/06/11 10:59:20;;;;;;;4.57;1.50;;;25.80;42.50;;;;;;4204500;28;20205;-81
2022/06/11 11:01:27;;;;;;;4.90;1.30;;;25.80;42.50;;;;;;4188125;28;20198;-82
2022/06/11 11:03:41;;;;;;;1.90;1.17;;;25.90;42.70;;;;;;4208964;28;20211;-84
2022/06/11 11:05:53;;;;;;;4.40;1.27;;;26.10;42.80;;;;;;4187438;28;20218;-85
2022/06/11 11:08:00;;;;;;;4.10;0.93;;;26.20;41.60;;;;;;4187620;28;20237;-82
2022/06/11 11:10:17;;;;;;;6.27;1.30;;;26.40;41.00;;;;;;4188864;28;20233;-82
2022/06/11 11:12:24;;;;;;;4.37;1.30;;;26.50;40.60;;;;;;4188109;28;20253;-82
2022/06/11 11:14:31;;;;;;;3.53;1.10;;;26.50;39.70;;;;;;4192579;28;20218;-83
2022/06/11 11:16:39;;;;;;;2.37;1.10;;;26.60;39.90;;;;;;4189281;28;20312;-83
2022/06/11 11:18:46;;;;;;;2.47;1.10;;;26.60;39.70;;;;;;4189672;28;20197;-84
2022/06/11 11:20:51;;;;;;;4.00;1.27;;;26.70;40.50;;;;;;4191124;28;20693;-83
2022/06/11 11:22:57;;;;;;;4.13;1.30;;;26.80;39.60;;;;;;4188520;28;20235;-84
2022/06/11 11:25:01;;;;;;;2.60;1.30;;;26.90;39.00;;;;;;4189521;28;20218;-82
2022/06/11 11:27:07;;;;;;;3.17;1.10;;;26.90;39.00;;;;;;4188230;28;20218;-85
2022/06/11 11:29:16;;;;;;;2.83;1.10;;;27.10;38.90;;;;;;4191781;28;20202;-82
2022/06/11 11:31:22;;;;;;;3.97;1.10;;;27.20;38.70;;;;;;4191071;28;20730;-85
2022/06/11 11:33:27;;;;;;;4.07;1.30;;;27.40;38.70;;;;;;4189119;28;20655;-83
2022/06/11 11:35:38;;;;;;;5.33;1.17;;;27.50;38.40;;;;;;4187258;28;20292;-83
2022/06/11 11:37:40;;;;;;;4.33;1.23;;;27.70;38.20;;;;;;4203742;28;20205;-81
2022/06/11 11:39:51;;;;;;;2.13;1.00;;;28.00;37.40;;;;;;4187150;28;20206;-81
2022/06/11 11:42:13;;;;;;;5.23;1.30;;;28.30;36.50;;;;;;4187467;28;20210;-81
2022/06/11 11:44:18;;;;;;;6.73;1.20;;;28.80;36.00;;;;;;4182320;28;20226;-84